Time;durP1;ratioP1;P1;durP2;ratioP2;P2;SDS_P1;SDS_P2;PMS_P1;PMS_P2;Temp;Humidity;BMP_temperature;BMP_pressure;BME280_temperature;BME280_humidity;BME280_pressure;Samples;Min_cycle;Max_cycle;Signal;HPM_P1;HPM_P2
2022/05/26 00:01:55;;;;;;;9.00;6.83;;;8.30;99.90;;;;;;10492806;28;20244;-90
2022/05/26 00:06:58;;;;;;;9.30;7.17;;;8.30;99.90;;;;;;10480744;28;20686;-91
2022/05/26 00:12:01;;;;;;;14.50;7.87;;;8.30;99.90;;;;;;10492302;28;20286;-90
2022/05/26 00:17:03;;;;;;;10.70;7.67;;;8.30;99.90;;;;;;10491376;28;20596;-90
2022/05/26 00:22:06;;;;;;;13.77;7.27;;;8.30;99.90;;;;;;10490461;28;20234;-90
2022/05/26 00:27:10;;;;;;;9.40;7.53;;;8.20;99.90;;;;;;10489360;28;20665;-91
2022/05/26 00:32:12;;;;;;;9.40;7.63;;;8.20;99.90;;;;;;10440858;28;20326;-91
2022/05/26 00:37:15;;;;;;;10.60;8.83;;;8.30;99.90;;;;;;10453227;28;20610;-90
2022/05/26 00:42:18;;;;;;;11.40;8.60;;;8.70;99.90;;;;;;10480864;28;20710;-90
2022/05/26 00:47:28;;;;;;;8.87;8.03;;;9.00;99.90;;;;;;10486868;28;20333;-91
2022/05/26 00:52:46;;;;;;;10.07;8.10;;;9.00;99.90;;;;;;10485408;28;20278;-91
2022/05/26 00:57:53;;;;;;;10.63;8.57;;;9.10;99.90;;;;;;10484588;28;20229;-91
2022/05/26 01:03:05;;;;;;;11.00;9.13;;;9.20;99.90;;;;;;10485444;28;20267;-91
2022/05/26 01:08:16;;;;;;;14.13;8.70;;;9.40;99.90;;;;;;10476327;28;20314;-91
2022/05/26 01:13:20;;;;;;;10.20;8.40;;;9.60;99.90;;;;;;10426340;28;20814;-90
2022/05/26 01:18:49;;;;;;;10.80;8.80;;;9.80;99.90;;;;;;10476055;28;20236;-91
2022/05/26 01:24:15;;;;;;;11.73;8.73;;;9.90;99.90;;;;;;10466463;28;20249;-91
2022/05/26 01:29:45;;;;;;;10.87;8.70;;;10.10;99.90;;;;;;10475362;28;20278;-90
2022/05/26 01:35:26;;;;;;;11.20;8.77;;;10.10;99.90;;;;;;10481153;28;20237;-89
2022/05/26 01:40:36;;;;;;;9.50;8.10;;;10.00;99.90;;;;;;10454521;28;20239;-90
2022/05/26 01:45:50;;;;;;;12.77;8.70;;;9.90;99.90;;;;;;10464436;28;20273;-90
2022/05/26 01:51:07;;;;;;;14.03;8.83;;;9.90;99.90;;;;;;10481875;28;20316;-90
2022/05/26 01:56:36;;;;;;;9.50;8.50;;;9.70;99.90;;;;;;10453985;28;20661;-90
2022/05/26 02:01:46;;;;;;;9.77;8.30;;;9.50;99.90;;;;;;10477807;28;20241;-89
2022/05/26 02:06:56;;;;;;;11.60;8.07;;;9.40;99.90;;;;;;10496890;28;20228;-89
2022/05/26 02:11:59;;;;;;;12.93;8.63;;;9.40;99.90;;;;;;10471270;28;20302;-89
2022/05/26 02:17:10;;;;;;;10.87;8.10;;;9.20;99.90;;;;;;10479827;28;20303;-89
2022/05/26 02:22:31;;;;;;;11.30;8.83;;;9.00;99.90;;;;;;10481207;28;20205;-90
2022/05/26 02:27:37;;;;;;;11.73;9.80;;;9.00;99.90;;;;;;10492134;28;20306;-90
2022/05/26 02:32:46;;;;;;;13.70;9.47;;;8.90;99.90;;;;;;10473809;28;20256;-90
2022/05/26 02:37:52;;;;;;;12.43;8.87;;;8.80;99.90;;;;;;10466855;28;20587;-89
2022/05/26 02:43:02;;;;;;;9.07;8.17;;;8.80;99.90;;;;;;10458195;28;20315;-89
2022/05/26 02:48:14;;;;;;;11.13;9.83;;;8.80;99.90;;;;;;10490213;28;20280;-90
2022/05/26 02:53:26;;;;;;;12.20;9.83;;;8.90;99.90;;;;;;10493310;28;20673;-90
2022/05/26 02:58:37;;;;;;;12.63;10.30;;;9.10;99.90;;;;;;10465568;28;20245;-90
2022/05/26 03:03:49;;;;;;;13.53;10.47;;;9.20;99.90;;;;;;10461946;28;20234;-92
2022/05/26 03:08:54;;;;;;;10.90;9.80;;;9.30;99.90;;;;;;10462495;28;20246;-92
2022/05/26 03:13:56;;;;;;;11.30;9.53;;;9.50;99.90;;;;;;10494618;28;20254;-92
2022/05/26 03:18:59;;;;;;;13.97;11.63;;;9.60;99.90;;;;;;10496651;28;20204;-93
2022/05/26 03:24:02;;;;;;;16.40;10.30;;;9.70;99.90;;;;;;10492727;28;20206;-91
2022/05/26 03:29:05;;;;;;;14.60;10.20;;;9.90;99.90;;;;;;10495796;28;20565;-91
2022/05/26 03:44:50;;;;;;;10.57;9.40;;;10.30;99.90;;;;;;10478224;28;20230;-91
2022/05/26 03:49:52;;;;;;;14.10;9.33;;;10.50;99.90;;;;;;10492676;28;20285;-91
2022/05/26 03:54:55;;;;;;;12.63;9.30;;;10.70;99.90;;;;;;10482132;28;20242;-91
2022/05/26 03:59:59;;;;;;;13.23;10.23;;;10.90;99.90;;;;;;10470017;28;20615;-91
2022/05/26 04:05:02;;;;;;;10.77;9.17;;;11.00;99.90;;;;;;10462992;28;20751;-92
2022/05/26 04:10:10;;;;;;;12.77;10.13;;;11.10;99.90;;;;;;10467782;28;20233;-92
2022/05/26 04:15:14;;;;;;;9.87;8.87;;;11.20;99.90;;;;;;10461509;28;20257;-91
2022/05/26 04:20:20;;;;;;;11.43;9.30;;;11.30;99.90;;;;;;10492558;28;20241;-92
2022/05/26 04:25:25;;;;;;;18.37;13.00;;;11.40;99.90;;;;;;10490697;28;20290;-91
2022/05/26 04:30:28;;;;;;;15.43;12.53;;;11.60;99.90;;;;;;10452902;28;20234;-92
2022/05/26 04:35:30;;;;;;;13.20;11.80;;;11.70;99.90;;;;;;10448188;28;21027;-92
2022/05/26 04:40:33;;;;;;;14.13;12.73;;;11.80;99.90;;;;;;10475286;28;20690;-92
2022/05/26 04:45:35;;;;;;;12.67;11.37;;;12.10;99.90;;;;;;10477157;28;20237;-92
2022/05/26 04:50:38;;;;;;;4.23;3.83;;;12.30;99.90;;;;;;10477002;28;20194;-91
2022/05/26 04:55:40;;;;;;;8.20;7.50;;;12.70;99.90;;;;;;10452855;28;20222;-90
2022/05/26 05:00:43;;;;;;;10.07;8.77;;;12.90;99.90;;;;;;10447975;28;20665;-90
2022/05/26 05:05:45;;;;;;;12.73;7.73;;;13.20;99.90;;;;;;10450623;28;20261;-91
2022/05/26 05:10:48;;;;;;;11.87;8.67;;;13.10;99.90;;;;;;10448270;28;20268;-92
2022/05/26 05:16:14;;;;;;;20.30;7.50;;;13.40;99.90;;;;;;10453450;28;20284;-90
2022/05/26 05:21:22;;;;;;;7.23;6.50;;;14.10;99.90;;;;;;10473463;28;20226;-91
2022/05/26 05:26:27;;;;;;;14.90;8.50;;;13.80;99.90;;;;;;10456914;28;20226;-91
2022/05/26 05:31:36;;;;;;;13.03;7.87;;;14.00;99.90;;;;;;10455146;28;20744;-91
2022/05/26 05:36:43;;;;;;;7.73;6.23;;;14.20;99.90;;;;;;10455733;28;20231;-91
2022/05/26 05:41:45;;;;;;;6.83;4.97;;;14.60;99.90;;;;;;10455565;28;20219;-91
2022/05/26 05:46:54;;;;;;;6.87;5.53;;;15.30;99.90;;;;;;10456691;28;20285;-91
2022/05/26 05:52:05;;;;;;;5.10;4.70;;;15.60;99.90;;;;;;10472708;28;20246;-92
2022/05/26 05:57:07;;;;;;;15.37;4.70;;;16.10;99.90;;;;;;10467621;28;20227;-92
2022/05/26 06:02:10;;;;;;;9.57;4.53;;;15.90;99.90;;;;;;10464542;28;20227;-91
2022/05/26 06:07:32;;;;;;;5.37;4.33;;;16.50;99.90;;;;;;10455192;28;20211;-91
2022/05/26 06:12:35;;;;;;;3.90;3.50;;;16.80;99.90;;;;;;10492975;28;20718;-91
2022/05/26 06:17:38;;;;;;;3.97;3.53;;;16.80;99.90;;;;;;10495888;28;20638;-92
2022/05/26 06:22:42;;;;;;;4.13;3.83;;;17.50;99.90;;;;;;10476807;28;20236;-92
2022/05/26 06:38:27;;;;;;;4.73;4.33;;;18.60;99.90;;;;;;10494233;28;20642;-91
2022/05/26 06:43:30;;;;;;;4.37;4.03;;;18.70;99.90;;;;;;10459697;28;20227;-91
2022/05/26 06:48:33;;;;;;;4.03;3.73;;;18.70;99.90;;;;;;10457143;28;20260;-91
2022/05/26 06:53:35;;;;;;;3.90;3.60;;;18.80;99.90;;;;;;10469113;28;20272;-92
2022/05/26 06:58:37;;;;;;;5.07;3.67;;;19.10;99.90;;;;;;10454164;28;20264;-91
2022/05/26 07:03:44;;;;;;;3.10;2.90;;;19.20;99.90;;;;;;10450908;28;20290;-92
2022/05/26 07:08:48;;;;;;;4.60;4.20;;;19.20;99.90;;;;;;10456485;28;20227;-91
2022/05/26 07:13:51;;;;;;;4.83;3.53;;;19.60;99.90;;;;;;10453245;28;20258;-91
2022/05/26 07:18:55;;;;;;;4.80;2.80;;;19.40;99.90;;;;;;10451366;28;20695;-90
2022/05/26 07:23:58;;;;;;;4.40;4.00;;;18.80;99.90;;;;;;10453323;28;20275;-91
2022/05/26 07:29:02;;;;;;;5.17;4.27;;;;;;;;;;10453500;28;20232;-90
2022/05/26 07:34:05;;;;;;;7.07;3.80;;;19.60;99.90;;;;;;10493192;28;20303;-91
2022/05/26 07:44:35;;;;;;;5.03;4.60;;;19.90;99.90;;;;;;10485853;28;20269;-89
2022/05/26 07:49:39;;;;;;;5.37;4.87;;;;;;;;;;10454713;28;20287;-89
2022/05/26 07:54:43;;;;;;;5.37;4.40;;;20.00;99.20;;;;;;10462790;28;20246;-90
2022/05/26 07:59:45;;;;;;;5.60;2.77;;;19.90;99.00;;;;;;10474754;28;20566;-91
2022/05/26 08:04:48;;;;;;;4.20;2.23;;;19.30;97.40;;;;;;10486426;28;20310;-90
2022/05/26 08:09:50;;;;;;;2.37;1.63;;;19.10;97.70;;;;;;10493450;28;20208;-91
2022/05/26 08:14:53;;;;;;;5.20;2.53;;;19.40;97.50;;;;;;10493531;28;20287;-90
2022/05/26 08:19:56;;;;;;;2.67;1.80;;;19.60;96.70;;;;;;10490069;28;20231;-91
2022/05/26 08:24:59;;;;;;;3.47;2.27;;;19.50;97.00;;;;;;10477137;28;20237;-90
2022/05/26 08:30:02;;;;;;;9.17;2.60;;;19.60;96.60;;;;;;10466797;28;20314;-90
2022/05/26 08:35:08;;;;;;;2.80;2.53;;;19.60;96.70;;;;;;10491893;28;20337;-90
2022/05/26 08:40:37;;;;;;;4.40;2.17;;;19.90;97.20;;;;;;10491138;28;20283;-90
2022/05/26 08:45:54;;;;;;;3.80;2.30;;;20.10;95.90;;;;;;10481670;28;20264;-91
2022/05/26 08:50:57;;;;;;;3.43;2.43;;;20.10;95.60;;;;;;10480852;28;20237;-90
2022/05/26 08:56:00;;;;;;;6.27;2.90;;;20.10;95.50;;;;;;10483674;28;20254;-90
2022/05/26 09:01:08;;;;;;;4.53;3.53;;;20.20;96.20;;;;;;10472705;28;20215;-91
2022/05/26 09:06:14;;;;;;;3.30;3.00;;;20.20;95.10;;;;;;10449174;28;20284;-90
2022/05/26 09:16:43;;;;;;;2.73;2.40;;;20.10;95.30;;;;;;10456814;28;20241;-90
2022/05/26 09:21:48;;;;;;;2.60;2.40;;;20.20;95.20;;;;;;10464860;28;20231;-91
2022/05/26 09:26:56;;;;;;;2.80;2.60;;;20.20;95.40;;;;;;10480797;28;20843;-88
2022/05/26 09:32:01;;;;;;;3.50;2.70;;;20.10;95.40;;;;;;10493992;28;20250;-88
2022/05/26 09:37:47;;;;;;;3.43;3.10;;;20.10;95.50;;;;;;10462746;28;20222;-88
2022/05/26 09:42:56;;;;;;;3.93;3.53;;;20.00;95.50;;;;;;10461691;28;20269;-88
2022/05/26 09:48:00;;;;;;;4.10;2.20;;;20.10;95.20;;;;;;10461102;28;20272;-88
2022/05/26 09:53:09;;;;;;;3.70;3.40;;;20.20;95.40;;;;;;10452211;28;20239;-88
2022/05/26 09:58:27;;;;;;;4.13;3.83;;;20.10;95.00;;;;;;10471025;28;20226;-87
2022/05/26 10:03:37;;;;;;;3.80;3.50;;;20.20;94.90;;;;;;10471597;28;20798;-88
2022/05/26 10:09:09;;;;;;;4.17;3.87;;;20.20;94.80;;;;;;10414849;28;20235;-88
2022/05/26 10:14:46;;;;;;;5.80;3.93;;;20.00;95.10;;;;;;10414425;28;20300;-88
2022/05/26 10:19:59;;;;;;;4.47;4.07;;;20.00;95.00;;;;;;10430558;28;20225;-88
2022/05/26 10:25:24;;;;;;;4.63;4.33;;;20.00;94.40;;;;;;10466179;28;20796;-87
2022/05/26 10:30:51;;;;;;;4.13;3.70;;;20.10;94.90;;;;;;10473766;28;20311;-88
2022/05/26 10:36:24;;;;;;;2.47;2.13;;;20.10;94.70;;;;;;10491526;28;20253;-87
2022/05/26 10:41:45;;;;;;;4.80;4.27;;;19.70;95.20;;;;;;10464517;28;20233;-88
2022/05/26 10:47:07;;;;;;;7.97;3.90;;;19.80;95.20;;;;;;10492531;28;20234;-87
2022/05/26 10:52:23;;;;;;;2.23;2.00;;;19.30;99.90;;;;;;10460161;28;20877;-87
2022/05/26 10:57:52;;;;;;;2.73;2.53;;;18.90;99.90;;;;;;10485632;28;20225;-87
2022/05/26 11:03:14;;;;;;;2.50;2.30;;;19.20;99.90;;;;;;10476899;28;20732;-87
2022/05/26 11:08:39;;;;;;;3.00;2.80;;;18.90;99.90;;;;;;10482616;28;20206;-88
2022/05/26 11:13:54;;;;;;;3.03;2.77;;;17.60;99.90;;;;;;10470477;28;20242;-88
2022/05/26 11:19:22;;;;;;;3.17;2.97;;;17.00;99.90;;;;;;10492913;28;20286;-87
2022/05/26 11:24:24;;;;;;;6.57;4.47;;;17.90;99.90;;;;;;10475265;28;20253;-86
2022/05/26 11:29:39;;;;;;;5.23;4.07;;;19.10;99.90;;;;;;10466933;28;20283;-87
2022/05/26 11:40:11;;;;;;;4.13;3.80;;;19.50;99.90;;;;;;10448332;28;20226;-87
2022/05/26 11:45:16;;;;;;;4.20;3.90;;;19.70;99.90;;;;;;10466357;28;20258;-87
2022/05/26 11:50:31;;;;;;;4.03;3.70;;;19.10;99.90;;;;;;10465904;28;20282;-86
2022/05/26 11:55:47;;;;;;;4.90;3.50;;;19.30;99.90;;;;;;10471366;28;20703;-86
2022/05/26 12:01:22;;;;;;;4.77;4.27;;;19.40;99.90;;;;;;10454531;28;20214;-89
2022/05/26 12:06:36;;;;;;;4.23;3.07;;;20.00;99.90;;;;;;10459606;28;20327;-88
2022/05/26 12:11:54;;;;;;;3.87;3.20;;;19.90;99.90;;;;;;10457289;28;20291;-88
2022/05/26 12:17:27;;;;;;;4.10;3.70;;;19.80;99.90;;;;;;10464240;28;20249;-88
2022/05/26 12:22:33;;;;;;;5.33;4.83;;;19.80;99.90;;;;;;10470224;28;20352;-88
2022/05/26 12:28:01;;;;;;;6.90;2.73;;;19.90;99.90;;;;;;10484773;28;20222;-88
2022/05/26 12:33:13;;;;;;;2.53;2.08;;;19.20;99.90;;;;;;10404559;28;20317;-90
2022/05/26 12:38:23;;;;;;;3.73;1.60;;;19.50;99.90;;;;;;10397762;28;20661;-89
2022/05/26 12:43:55;;;;;;;4.97;2.13;;;19.30;99.90;;;;;;10419607;28;20266;-90
2022/05/26 12:49:14;;;;;;;1.33;1.23;;;19.30;99.40;;;;;;10439105;28;20211;-88
2022/05/26 12:54:19;;;;;;;4.30;1.40;;;19.30;98.90;;;;;;10396250;28;20251;-90
2022/05/26 12:59:25;;;;;;;1.57;1.47;;;19.20;97.90;;;;;;10391159;28;20243;-89
2022/05/26 13:04:35;;;;;;;1.37;1.10;;;19.40;98.80;;;;;;10412037;28;20338;-87
2022/05/26 13:09:49;;;;;;;4.70;1.30;;;19.50;98.10;;;;;;10474509;28;20939;-91
2022/05/26 13:14:56;;;;;;;2.60;1.00;;;19.60;96.20;;;;;;10456016;28;20706;-94
2022/05/26 13:20:04;;;;;;;2.43;1.40;;;19.60;94.10;;;;;;10453333;28;20198;-93
2022/05/26 13:25:15;;;;;;;1.90;1.17;;;19.40;92.80;;;;;;10461026;28;20202;-90
2022/05/26 13:35:45;;;;;;;1.23;1.13;;;19.40;91.30;;;;;;10475761;28;20639;-91
2022/05/26 13:40:48;;;;;;;4.50;1.10;;;19.60;90.00;;;;;;10497085;28;20279;-90
2022/05/26 13:45:51;;;;;;;14.87;1.53;;;19.70;90.00;;;;;;10488539;28;20261;-90
2022/05/26 13:51:10;;;;;;;5.13;0.93;;;19.90;89.10;;;;;;10489576;28;20213;-90
2022/05/26 13:56:30;;;;;;;1.60;1.10;;;19.80;89.60;;;;;;10489016;28;20254;-92
2022/05/26 14:01:33;;;;;;;5.83;1.77;;;19.80;88.70;;;;;;10472513;28;20566;-88
2022/05/26 14:06:41;;;;;;;2.30;1.20;;;19.70;87.90;;;;;;10480523;28;20231;-89
2022/05/26 14:11:47;;;;;;;2.10;1.30;;;19.80;87.10;;;;;;10480241;28;20230;-89
2022/05/26 14:16:50;;;;;;;1.43;1.10;;;19.90;87.40;;;;;;10460672;28;20370;-89
2022/05/26 14:21:52;;;;;;;4.70;2.43;;;19.90;87.70;;;;;;10458847;28;20645;-89
2022/05/26 14:27:18;;;;;;;4.10;1.33;;;19.90;85.70;;;;;;10455398;28;20315;-89
2022/05/26 14:32:31;;;;;;;1.93;1.73;;;20.10;87.30;;;;;;10468151;28;20234;-88
2022/05/26 14:37:34;;;;;;;1.50;1.40;;;20.10;87.90;;;;;;10475976;28;20651;-90
2022/05/26 14:42:42;;;;;;;4.80;1.80;;;20.00;87.30;;;;;;10419574;28;20305;-89
2022/05/26 14:47:46;;;;;;;3.10;1.67;;;20.00;88.40;;;;;;10456152;28;20234;-88
2022/05/26 14:52:49;;;;;;;5.43;1.70;;;19.90;88.50;;;;;;10470157;28;20241;-90
2022/05/26 14:57:52;;;;;;;2.10;1.90;;;19.70;88.10;;;;;;10477197;28;20250;-89
2022/05/26 15:02:54;;;;;;;5.50;2.10;;;19.90;89.00;;;;;;10464349;28;20200;-90
2022/05/26 15:07:57;;;;;;;3.07;1.60;;;19.90;88.50;;;;;;10489286;28;20280;-89
2022/05/26 15:13:00;;;;;;;3.30;1.70;;;19.80;85.70;;;;;;10484896;28;20217;-89
2022/05/26 15:18:02;;;;;;;3.17;1.90;;;19.60;87.20;;;;;;10475988;28;20621;-89
2022/05/26 15:23:06;;;;;;;2.03;1.83;;;19.70;87.20;;;;;;10438489;28;20238;-90
2022/05/26 15:28:10;;;;;;;3.37;1.90;;;19.50;89.20;;;;;;10454934;28;20257;-89
2022/05/26 15:33:19;;;;;;;4.83;3.08;;;19.30;85.90;;;;;;10318426;28;10000699;-89
2022/05/26 15:38:22;;;;;;;2.67;2.47;;;19.60;90.80;;;;;;10452042;28;20513;-88
2022/05/26 15:43:24;;;;;;;5.03;1.70;;;19.40;90.30;;;;;;10453266;28;20296;-88
2022/05/26 15:48:27;;;;;;;3.30;2.90;;;19.10;87.50;;;;;;10459089;28;20235;-89
2022/05/26 15:53:30;;;;;;;2.60;2.27;;;19.10;90.40;;;;;;10489555;28;20275;-89
2022/05/26 15:58:33;;;;;;;3.37;2.63;;;19.30;87.30;;;;;;10483997;28;20276;-89
2022/05/26 16:03:35;;;;;;;4.93;3.07;;;19.20;90.60;;;;;;10477248;28;20287;-89
2022/05/26 16:08:38;;;;;;;3.83;1.70;;;19.50;90.20;;;;;;10473230;28;20679;-88
2022/05/26 16:13:42;;;;;;;2.77;2.13;;;19.40;89.60;;;;;;10487573;28;20303;-88
2022/05/26 16:18:44;;;;;;;4.43;1.90;;;19.60;90.00;;;;;;10465845;28;20689;-89
2022/05/26 16:23:50;;;;;;;5.57;2.23;;;19.50;90.10;;;;;;10456267;28;20227;-89
2022/05/26 16:28:53;;;;;;;7.03;3.50;;;19.50;90.40;;;;;;10465934;28;20234;-88
2022/05/26 16:33:55;;;;;;;5.03;2.30;;;19.60;90.20;;;;;;10459223;28;20218;-91
2022/05/26 16:38:58;;;;;;;4.10;2.00;;;19.30;90.40;;;;;;10449256;28;20203;-90
2022/05/26 16:44:01;;;;;;;4.10;2.60;;;19.40;90.60;;;;;;10466526;28;20231;-90
2022/05/26 16:49:04;;;;;;;3.40;2.00;;;19.30;91.00;;;;;;10433533;28;20214;-90
2022/05/26 16:54:19;;;;;;;2.83;1.70;;;19.30;90.80;;;;;;10449951;28;20242;-90
2022/05/26 16:59:22;;;;;;;2.43;2.10;;;19.30;90.90;;;;;;10433493;28;20266;-92
2022/05/26 17:04:25;;;;;;;3.27;1.70;;;19.20;90.80;;;;;;10432673;28;20214;-91
2022/05/26 17:09:29;;;;;;;1.97;1.73;;;19.20;90.60;;;;;;10449082;28;20256;-91
2022/05/26 17:25:14;;;;;;;6.03;1.90;;;18.90;91.50;;;;;;10456657;28;20211;-91
2022/05/26 17:30:19;;;;;;;7.43;2.20;;;19.20;91.20;;;;;;10457134;28;20207;-90
2022/05/26 17:35:21;;;;;;;3.70;2.30;;;19.10;90.90;;;;;;10457013;28;20246;-91
2022/05/26 17:40:24;;;;;;;8.70;2.60;;;19.20;91.00;;;;;;10439124;28;20234;-90
2022/05/26 17:45:28;;;;;;;4.40;2.43;;;19.00;91.00;;;;;;10472866;28;20288;-91
2022/05/26 17:50:32;;;;;;;9.67;3.33;;;18.80;91.70;;;;;;10456400;28;20260;-90
2022/05/26 17:55:35;;;;;;;5.20;2.80;;;18.70;91.10;;;;;;10456196;28;20262;-91
2022/05/26 18:00:56;;;;;;;5.83;2.40;;;18.90;91.90;;;;;;10454529;28;20653;-91
2022/05/26 18:06:06;;;;;;;3.03;2.33;;;19.00;91.40;;;;;;10454792;28;20222;-90
2022/05/26 18:11:11;;;;;;;5.27;1.97;;;19.00;90.70;;;;;;10472055;28;20230;-92
2022/05/26 18:16:34;;;;;;;3.70;2.07;;;19.30;88.30;;;;;;10488541;28;20615;-90
2022/05/26 18:21:40;;;;;;;3.13;1.90;;;19.40;88.90;;;;;;10480826;28;20229;-92
2022/05/26 18:26:42;;;;;;;2.27;2.00;;;19.80;85.50;;;;;;10493667;28;20228;-93
2022/05/26 18:31:53;;;;;;;2.28;2.08;;;20.60;86.90;;;;;;10483076;28;20198;-94
2022/05/26 18:36:56;;;;;;;5.65;2.15;;;20.40;84.10;;;;;;10475811;28;20231;-92
2022/05/26 18:41:59;;;;;;;4.75;3.33;;;21.20;85.00;;;;;;10506547;28;20238;-93
2022/05/26 18:47:04;;;;;;;3.08;2.78;;;21.30;84.30;;;;;;10458638;28;20235;-91
2022/05/26 18:52:14;;;;;;;4.13;2.35;;;21.30;84.70;;;;;;10470078;28;20203;-91
2022/05/26 18:57:18;;;;;;;4.95;3.42;;;20.60;81.70;;;;;;10470731;28;20272;-92
2022/05/26 19:02:30;;;;;;;4.53;3.78;;;20.90;82.80;;;;;;10497415;28;20279;-92
2022/05/26 19:07:52;;;;;;;4.38;3.97;;;21.20;85.20;;;;;;10464861;28;20577;-92
2022/05/26 19:12:56;;;;;;;3.85;3.55;;;20.90;80.50;;;;;;10494797;28;20216;-92
2022/05/26 19:18:09;;;;;;;7.07;3.85;;;21.20;83.90;;;;;;10495202;28;20652;-91
2022/05/26 19:23:12;;;;;;;5.30;3.10;;;21.20;80.30;;;;;;10483339;28;20195;-91
2022/05/26 19:28:38;;;;;;;8.15;2.45;;;21.10;78.10;;;;;;10467590;28;20206;-91
2022/05/26 19:33:41;;;;;;;4.47;1.70;;;20.50;76.00;;;;;;10465214;28;20210;-90
2022/05/26 19:38:45;;;;;;;4.97;3.00;;;19.70;81.90;;;;;;10449975;28;20226;-91
2022/05/26 19:43:49;;;;;;;4.50;3.05;;;20.60;79.40;;;;;;10468179;28;20280;-90
2022/05/26 19:48:51;;;;;;;5.40;3.90;;;20.40;82.00;;;;;;10461291;28;20667;-90
2022/05/26 19:53:54;;;;;;;3.72;2.92;;;20.60;83.60;;;;;;10470771;28;20283;-92
2022/05/26 19:59:00;;;;;;;4.60;3.90;;;20.70;83.90;;;;;;10491856;28;20250;-90
2022/05/26 20:04:09;;;;;;;3.28;2.92;;;20.00;83.80;;;;;;10492650;28;20275;-90
2022/05/26 20:09:11;;;;;;;5.13;4.55;;;19.80;82.70;;;;;;10479475;28;20203;-91
2022/05/26 20:14:19;;;;;;;5.28;4.60;;;20.20;84.00;;;;;;10457176;28;20586;-90
2022/05/26 20:19:23;;;;;;;5.50;1.52;;;19.70;86.10;;;;;;10459246;28;20830;-90
2022/05/26 20:24:25;;;;;;;5.75;2.67;;;19.90;76.80;;;;;;10484266;28;20267;-91
2022/05/26 20:29:34;;;;;;;3.45;1.52;;;19.90;83.60;;;;;;10441114;28;20257;-90
2022/05/26 20:34:38;;;;;;;4.38;3.97;;;19.80;78.70;;;;;;10468728;28;20959;-90
2022/05/26 20:39:42;;;;;;;2.50;2.30;;;20.30;83.20;;;;;;10491862;28;20222;-90
2022/05/26 20:44:46;;;;;;;3.83;3.08;;;19.70;83.40;;;;;;10489322;28;20258;-90
2022/05/26 20:49:51;;;;;;;4.03;3.50;;;19.60;84.50;;;;;;10486366;28;20273;-90
2022/05/26 20:54:54;;;;;;;3.60;3.30;;;19.20;85.00;;;;;;10449594;28;20246;-90
2022/05/26 20:59:57;;;;;;;4.88;1.38;;;20.30;85.70;;;;;;10459228;28;20271;-90
2022/05/26 21:04:59;;;;;;;4.80;1.85;;;19.90;76.30;;;;;;10485787;28;20229;-89
2022/05/26 21:10:03;;;;;;;5.00;3.47;;;19.70;78.40;;;;;;10465142;28;20223;-90
2022/05/26 21:15:06;;;;;;;5.60;4.70;;;19.80;86.50;;;;;;10435958;28;20246;-89
2022/05/26 21:20:10;;;;;;;5.47;3.15;;;20.20;83.10;;;;;;10485931;28;20691;-90
2022/05/26 21:25:13;;;;;;;4.18;3.88;;;20.10;85.30;;;;;;10488507;28;20226;-89
2022/05/26 21:30:18;;;;;;;4.20;3.80;;;20.30;86.00;;;;;;10444496;28;20230;-90
2022/05/26 21:35:21;;;;;;;3.85;2.15;;;19.90;84.40;;;;;;10454242;28;20287;-91
2022/05/26 21:40:23;;;;;;;1.40;1.02;;;19.90;81.80;;;;;;10458854;28;20222;-90
2022/05/26 21:45:27;;;;;;;4.82;4.30;;;19.70;78.70;;;;;;10462272;28;20277;-90
2022/05/26 21:50:29;;;;;;;3.03;2.10;;;19.60;87.80;;;;;;10457482;28;20235;-90
2022/05/26 21:55:33;;;;;;;4.22;3.22;;;19.60;85.60;;;;;;10479307;28;20307;-89
2022/05/26 22:00:54;;;;;;;2.53;1.30;;;19.80;84.00;;;;;;10488764;28;20231;-90
2022/05/26 22:11:17;;;;;;;4.78;4.32;;;19.80;86.70;;;;;;10425094;28;20268;-91
2022/05/26 22:16:20;;;;;;;2.58;1.25;;;19.70;87.50;;;;;;10460293;28;20251;-91
2022/05/26 22:21:22;;;;;;;3.22;1.77;;;18.80;81.50;;;;;;10440523;28;20227;-90
2022/05/26 22:26:25;;;;;;;6.28;1.88;;;18.90;86.90;;;;;;10474189;28;20223;-90
2022/05/26 22:31:27;;;;;;;4.87;1.60;;;17.60;88.00;;;;;;10464126;28;20230;-90
2022/05/26 22:36:31;;;;;;;3.80;1.53;;;16.90;90.90;;;;;;10453721;28;20250;-90
2022/05/26 22:41:34;;;;;;;6.33;1.80;;;16.60;92.00;;;;;;10458591;28;20267;-90
2022/05/26 22:46:38;;;;;;;7.90;2.00;;;16.30;93.50;;;;;;10458325;28;20242;-90
2022/05/26 22:51:41;;;;;;;4.07;2.10;;;16.10;95.10;;;;;;10455119;28;20670;-91
2022/05/26 22:56:44;;;;;;;5.37;2.20;;;15.90;97.40;;;;;;10454817;28;20239;-90
2022/05/26 23:01:46;;;;;;;4.53;2.27;;;15.70;97.40;;;;;;10451946;28;20224;-91
2022/05/26 23:06:49;;;;;;;4.93;2.70;;;15.60;98.30;;;;;;10474356;28;20206;-89
2022/05/26 23:11:52;;;;;;;6.60;3.03;;;15.40;99.90;;;;;;10472804;28;20838;-89
2022/05/26 23:16:54;;;;;;;4.87;2.87;;;15.70;99.90;;;;;;10456641;28;20243;-89
2022/05/26 23:21:57;;;;;;;7.30;2.57;;;15.40;99.90;;;;;;10485621;28;20638;-89
2022/05/26 23:27:00;;;;;;;8.50;3.30;;;15.30;99.90;;;;;;10494480;28;20230;-90
2022/05/26 23:32:03;;;;;;;6.20;2.93;;;15.20;99.90;;;;;;10490142;28;20256;-90
2022/05/26 23:37:05;;;;;;;4.20;2.97;;;15.00;99.90;;;;;;10494639;28;20237;-90
2022/05/26 23:47:29;;;;;;;4.30;2.77;;;15.10;99.90;;;;;;10490622;28;20268;-90
2022/05/26 23:52:32;;;;;;;6.57;3.00;;;15.10;99.90;;;;;;10491042;28;20247;-89
2022/05/26 23:57:49;;;;;;;4.27;2.83;;;15.70;99.90;;;;;;10491448;28;20257;-90
